Time;durP1;ratioP1;P1;durP2;ratioP2;P2;SDS_P1;SDS_P2;PMS_P1;PMS_P2;Temp;Humidity;BMP_temperature;BMP_pressure;BME280_temperature;BME280_humidity;BME280_pressure;Samples;Min_cycle;Max_cycle;Signal;HPM_P1;HPM_P2
2023/12/21 00:02:13;;;;;;;1.60;1.40;;;5.30;99.90;;;;;;5032064;28;20173;-68
2023/12/21 00:04:38;;;;;;;0.93;0.93;;;5.40;99.90;;;;;;5030592;28;20201;-68
2023/12/21 00:07:04;;;;;;;1.90;1.20;;;5.30;99.90;;;;;;5031641;28;20174;-67
2023/12/21 00:09:29;;;;;;;1.63;1.13;;;5.30;99.90;;;;;;5032092;28;20217;-68
2023/12/21 00:11:55;;;;;;;2.13;1.33;;;5.20;99.90;;;;;;5032004;28;20784;-68
2023/12/21 00:14:23;;;;;;;2.10;1.00;;;5.20;99.90;;;;;;5055081;23;20203;-70
2023/12/21 00:16:48;;;;;;;1.30;1.17;;;5.30;99.90;;;;;;5031089;28;20428;-71
2023/12/21 00:19:14;;;;;;;0.90;0.90;;;5.30;99.90;;;;;;5031886;28;20944;-71
2023/12/21 00:21:39;;;;;;;1.13;0.93;;;5.30;99.90;;;;;;5031986;28;20197;-71
2023/12/21 00:24:05;;;;;;;1.90;1.10;;;5.20;99.90;;;;;;5031841;28;20246;-71
2023/12/21 00:26:30;;;;;;;0.97;0.87;;;5.20;99.90;;;;;;5031758;28;20653;-71
2023/12/21 00:28:56;;;;;;;0.73;0.73;;;5.20;99.90;;;;;;5031859;28;20174;-71
2023/12/21 00:31:22;;;;;;;3.20;1.10;;;5.20;99.90;;;;;;5031873;28;20560;-71
2023/12/21 00:33:48;;;;;;;1.00;0.97;;;5.20;99.90;;;;;;5031793;28;20534;-71
2023/12/21 00:36:16;;;;;;;1.63;0.80;;;5.20;99.90;;;;;;5031629;28;20547;-71
2023/12/21 00:38:42;;;;;;;0.80;0.80;;;5.30;99.90;;;;;;5031624;28;20170;-71
2023/12/21 00:41:08;;;;;;;1.13;0.73;;;5.30;99.90;;;;;;5031857;28;20435;-71
2023/12/21 00:43:33;;;;;;;1.33;1.00;;;5.30;99.90;;;;;;5031562;28;20639;-70
2023/12/21 00:45:59;;;;;;;0.90;0.80;;;5.30;99.90;;;;;;5031466;28;20626;-70
2023/12/21 00:48:25;;;;;;;0.50;0.50;;;5.30;99.90;;;;;;5031496;28;20245;-70
2023/12/21 00:50:51;;;;;;;0.83;0.83;;;5.30;99.90;;;;;;5031703;28;20562;-70
2023/12/21 00:53:17;;;;;;;1.53;0.77;;;5.30;99.90;;;;;;5031957;28;20419;-70
2023/12/21 00:55:43;;;;;;;1.40;0.77;;;5.30;99.90;;;;;;5031817;28;20222;-70
2023/12/21 00:58:09;;;;;;;3.93;1.10;;;5.30;99.90;;;;;;5031504;28;20499;-70
2023/12/21 01:00:34;;;;;;;0.70;0.70;;;5.30;99.90;;;;;;5031615;28;20561;-70
2023/12/21 01:02:59;;;;;;;1.63;0.87;;;5.30;99.90;;;;;;5031846;28;20182;-70
2023/12/21 01:05:25;;;;;;;0.90;0.90;;;5.30;99.90;;;;;;5050352;28;20623;-70
2023/12/21 01:07:50;;;;;;;1.90;0.70;;;5.40;99.90;;;;;;5034906;28;20198;-69
2023/12/21 01:10:16;;;;;;;1.07;0.77;;;5.40;99.90;;;;;;5035164;28;20508;-69
2023/12/21 01:12:41;;;;;;;1.43;0.70;;;5.40;99.90;;;;;;5035151;28;20183;-69
2023/12/21 01:15:07;;;;;;;1.10;0.60;;;5.40;99.90;;;;;;5050309;28;20216;-69
2023/12/21 01:17:34;;;;;;;1.37;0.80;;;5.40;99.90;;;;;;5034758;28;20268;-69
2023/12/21 01:19:59;;;;;;;1.27;0.50;;;5.40;99.90;;;;;;5034944;28;20178;-70
2023/12/21 01:22:25;;;;;;;0.80;0.73;;;5.40;99.90;;;;;;5034819;28;20482;-69
2023/12/21 01:24:50;;;;;;;1.23;0.60;;;5.40;99.90;;;;;;5034733;28;20210;-69
2023/12/21 01:27:16;;;;;;;0.90;0.80;;;5.40;99.90;;;;;;5034465;28;20171;-69
2023/12/21 01:29:41;;;;;;;1.00;0.90;;;5.40;99.90;;;;;;5034716;28;20175;-69
2023/12/21 01:32:07;;;;;;;0.60;0.60;;;5.40;99.90;;;;;;5034716;28;20170;-69
2023/12/21 01:34:32;;;;;;;0.70;0.60;;;5.40;99.90;;;;;;5034652;28;20571;-69
2023/12/21 01:36:58;;;;;;;1.13;0.67;;;5.50;99.90;;;;;;5034304;28;20252;-69
2023/12/21 01:39:23;;;;;;;0.70;0.70;;;5.50;99.90;;;;;;5034624;28;20217;-69
2023/12/21 01:41:49;;;;;;;0.70;0.60;;;5.50;99.90;;;;;;5034814;28;20606;-68
2023/12/21 01:44:15;;;;;;;0.83;0.70;;;5.50;99.90;;;;;;5034534;28;20171;-69
2023/12/21 01:46:43;;;;;;;0.70;0.70;;;5.50;99.90;;;;;;5034421;28;20428;-69
2023/12/21 01:49:08;;;;;;;1.30;0.70;;;5.50;99.90;;;;;;5034576;28;20178;-69
2023/12/21 01:51:34;;;;;;;1.63;0.60;;;5.50;99.90;;;;;;5034321;28;20425;-69
2023/12/21 01:54:03;;;;;;;0.57;0.57;;;5.50;99.90;;;;;;5034414;28;20204;-69
2023/12/21 01:56:32;;;;;;;0.60;0.60;;;5.50;99.90;;;;;;5034296;28;20166;-70
2023/12/21 01:58:58;;;;;;;1.10;0.67;;;5.50;99.90;;;;;;5034461;28;20455;-70
2023/12/21 02:01:25;;;;;;;0.90;0.90;;;5.60;99.90;;;;;;5034259;28;20421;-69
2023/12/21 02:03:51;;;;;;;1.00;0.60;;;5.60;99.90;;;;;;5034197;28;20456;-69
2023/12/21 02:06:16;;;;;;;0.60;0.60;;;5.60;99.90;;;;;;5033712;28;20876;-71
2023/12/21 02:08:42;;;;;;;0.70;0.70;;;5.60;99.90;;;;;;5034035;28;20174;-71
2023/12/21 02:11:10;;;;;;;0.60;0.60;;;5.60;99.90;;;;;;5049498;28;20184;-71
2023/12/21 02:13:35;;;;;;;1.40;0.70;;;5.60;99.90;;;;;;5034005;28;20607;-71
2023/12/21 02:16:17;;;;;;;0.60;0.60;;;5.60;99.90;;;;;;5033128;28;20496;-69
2023/12/21 02:18:43;;;;;;;0.70;0.70;;;5.60;99.90;;;;;;5033722;28;20424;-69
2023/12/21 02:21:11;;;;;;;0.80;0.70;;;5.70;99.90;;;;;;5033881;28;20931;-68
2023/12/21 02:23:39;;;;;;;0.50;0.50;;;5.70;99.90;;;;;;5033797;28;20444;-68
2023/12/21 02:26:05;;;;;;;1.73;1.63;;;5.70;99.90;;;;;;5033661;28;20522;-69
2023/12/21 02:28:30;;;;;;;0.50;0.50;;;5.70;99.90;;;;;;5033434;28;20417;-68
2023/12/21 02:30:56;;;;;;;0.50;0.50;;;5.70;99.90;;;;;;5033594;28;20185;-69
2023/12/21 02:33:21;;;;;;;1.03;0.60;;;5.70;99.90;;;;;;5033782;28;20182;-69
2023/12/21 02:35:47;;;;;;;0.80;0.77;;;5.70;99.90;;;;;;5033376;28;20675;-69
2023/12/21 02:38:12;;;;;;;0.90;0.90;;;5.80;99.90;;;;;;5033162;28;20190;-69
2023/12/21 02:40:38;;;;;;;1.13;0.57;;;5.70;99.90;;;;;;5033562;28;20170;-68
2023/12/21 02:43:03;;;;;;;0.63;0.50;;;5.70;99.90;;;;;;5033507;28;20182;-69
2023/12/21 02:45:29;;;;;;;0.43;0.43;;;5.80;99.90;;;;;;5033196;28;20703;-69
2023/12/21 02:47:54;;;;;;;0.50;0.40;;;5.80;99.90;;;;;;5032944;28;20181;-71
2023/12/21 02:50:20;;;;;;;1.73;0.80;;;5.80;99.90;;;;;;5033148;28;20171;-70
2023/12/21 02:52:45;;;;;;;0.50;0.50;;;5.80;99.90;;;;;;5033105;28;20171;-69
2023/12/21 02:55:11;;;;;;;0.50;0.50;;;5.80;99.90;;;;;;5033072;28;20197;-69
2023/12/21 02:57:37;;;;;;;0.93;0.70;;;5.80;99.90;;;;;;5032882;28;20220;-69
2023/12/21 03:00:02;;;;;;;0.87;0.60;;;5.80;99.90;;;;;;5033015;28;20170;-69
2023/12/21 03:02:28;;;;;;;1.47;0.80;;;5.80;99.90;;;;;;5048349;28;20174;-69
2023/12/21 03:04:53;;;;;;;0.73;0.60;;;5.80;99.90;;;;;;5032820;28;20210;-69
2023/12/21 03:07:19;;;;;;;0.93;0.53;;;5.80;99.90;;;;;;5032526;28;20264;-69
2023/12/21 03:09:44;;;;;;;0.63;0.50;;;5.80;99.90;;;;;;5032903;28;20237;-69
2023/12/21 03:12:10;;;;;;;0.50;0.43;;;5.80;99.90;;;;;;5032851;28;20181;-70
2023/12/21 03:14:35;;;;;;;1.00;0.67;;;5.80;99.90;;;;;;5032604;28;20229;-69
2023/12/21 03:17:01;;;;;;;1.23;0.60;;;5.80;99.90;;;;;;5032498;28;20174;-69
2023/12/21 03:19:26;;;;;;;1.57;0.50;;;5.80;99.90;;;;;;5032811;28;20182;-69
2023/12/21 03:21:52;;;;;;;0.50;0.50;;;5.80;99.90;;;;;;5032778;28;20175;-68
2023/12/21 03:24:17;;;;;;;0.67;0.63;;;5.80;99.90;;;;;;5032627;28;20170;-69
2023/12/21 03:26:45;;;;;;;1.03;0.60;;;5.90;99.90;;;;;;5031448;28;20174;-69
2023/12/21 03:29:11;;;;;;;0.50;0.50;;;5.90;99.90;;;;;;5032647;28;20212;-69
2023/12/21 03:31:36;;;;;;;0.60;0.50;;;5.80;99.90;;;;;;5032783;28;20436;-69
2023/12/21 03:34:02;;;;;;;0.60;0.50;;;5.90;99.90;;;;;;5032524;28;20294;-69
2023/12/21 03:36:27;;;;;;;1.13;0.50;;;5.90;99.90;;;;;;5032140;28;20250;-69
2023/12/21 03:38:53;;;;;;;0.97;0.60;;;5.90;99.90;;;;;;5032743;28;20170;-69
2023/12/21 03:41:18;;;;;;;0.53;0.53;;;5.90;99.90;;;;;;5032392;28;20543;-69
2023/12/21 03:43:44;;;;;;;1.10;0.40;;;5.90;99.90;;;;;;5032367;28;20171;-69
2023/12/21 03:46:09;;;;;;;0.73;0.57;;;5.90;99.90;;;;;;5032021;28;20206;-69
2023/12/21 03:48:35;;;;;;;0.50;0.50;;;5.90;99.90;;;;;;5031985;28;20167;-69
2023/12/21 03:51:01;;;;;;;0.60;0.53;;;5.80;99.90;;;;;;5032017;28;20657;-69
2023/12/21 03:53:26;;;;;;;0.60;0.43;;;5.80;99.90;;;;;;5032238;28;20175;-69
2023/12/21 03:55:52;;;;;;;0.60;0.60;;;5.80;99.90;;;;;;5032144;28;20186;-69
2023/12/21 03:58:17;;;;;;;2.73;0.50;;;5.90;99.90;;;;;;5032372;28;20178;-69
2023/12/21 04:00:43;;;;;;;0.50;0.40;;;5.80;99.90;;;;;;5032363;28;20682;-69
2023/12/21 04:03:08;;;;;;;0.47;0.40;;;5.90;99.90;;;;;;5032145;28;20213;-69
2023/12/21 04:05:34;;;;;;;0.50;0.40;;;5.90;99.90;;;;;;5031804;28;20289;-69
2023/12/21 04:07:59;;;;;;;0.83;0.53;;;5.90;99.90;;;;;;5047006;28;20178;-69
2023/12/21 04:10:25;;;;;;;0.53;0.53;;;6.00;99.90;;;;;;5032023;28;20167;-69
2023/12/21 04:12:51;;;;;;;0.40;0.40;;;5.90;99.90;;;;;;5032045;28;20167;-69
2023/12/21 04:15:16;;;;;;;0.90;0.60;;;5.90;99.90;;;;;;5031931;28;20236;-69
2023/12/21 04:17:42;;;;;;;0.50;0.40;;;5.90;99.90;;;;;;5031739;28;20193;-69
2023/12/21 04:20:09;;;;;;;0.60;0.50;;;5.90;99.90;;;;;;5031781;28;20166;-68
2023/12/21 04:22:34;;;;;;;0.50;0.50;;;5.90;99.90;;;;;;5031830;28;20170;-69
2023/12/21 04:25:00;;;;;;;0.50;0.43;;;5.90;99.90;;;;;;5031613;28;20558;-68
2023/12/21 04:27:26;;;;;;;1.70;0.60;;;5.90;99.90;;;;;;5031587;28;20167;-69
2023/12/21 04:29:52;;;;;;;0.70;0.70;;;5.80;99.90;;;;;;5031841;28;20171;-69
2023/12/21 04:32:17;;;;;;;0.60;0.60;;;5.80;99.90;;;;;;5031810;28;20533;-69
2023/12/21 04:34:43;;;;;;;0.60;0.50;;;5.80;99.90;;;;;;5046897;28;20440;-69
2023/12/21 04:37:08;;;;;;;0.50;0.40;;;5.80;99.90;;;;;;5031559;28;20527;-69
2023/12/21 04:39:34;;;;;;;0.60;0.60;;;5.80;99.90;;;;;;5034819;28;20224;-69
2023/12/21 04:42:00;;;;;;;1.33;0.70;;;5.80;99.90;;;;;;5035720;28;20174;-69
2023/12/21 04:44:25;;;;;;;0.50;0.47;;;5.70;99.90;;;;;;5035383;28;20202;-69
2023/12/21 04:46:51;;;;;;;1.20;0.80;;;5.70;99.90;;;;;;5035241;28;20421;-69
2023/12/21 04:49:19;;;;;;;0.50;0.50;;;5.70;99.90;;;;;;5035408;28;20177;-71
2023/12/21 04:51:45;;;;;;;0.60;0.50;;;5.70;99.90;;;;;;5035435;28;20170;-69
2023/12/21 04:54:11;;;;;;;0.70;0.50;;;5.70;99.90;;;;;;5035374;28;20500;-69
2023/12/21 04:56:41;;;;;;;0.60;0.60;;;5.70;99.90;;;;;;5035067;28;20962;-69
2023/12/21 04:59:07;;;;;;;0.70;0.50;;;5.70;99.90;;;;;;5035345;28;20162;-69
2023/12/21 05:01:32;;;;;;;1.53;0.60;;;5.70;99.90;;;;;;5035224;28;20421;-69
2023/12/21 05:03:59;;;;;;;0.70;0.50;;;5.70;99.90;;;;;;5035158;28;20971;-71
2023/12/21 05:06:25;;;;;;;1.83;1.00;;;5.80;99.90;;;;;;5034820;28;20206;-69
2023/12/21 05:08:51;;;;;;;0.80;0.53;;;5.80;99.90;;;;;;5035197;28;20515;-69
2023/12/21 05:11:17;;;;;;;0.40;0.40;;;5.80;99.90;;;;;;5035099;28;20167;-69
2023/12/21 05:13:43;;;;;;;0.50;0.50;;;5.80;99.90;;;;;;5035239;28;20416;-69
2023/12/21 05:16:08;;;;;;;0.60;0.57;;;5.80;99.90;;;;;;5034802;28;20456;-69
2023/12/21 05:18:36;;;;;;;0.73;0.60;;;5.90;99.90;;;;;;5034669;28;20647;-69
2023/12/21 05:21:01;;;;;;;0.50;0.50;;;5.80;99.90;;;;;;5034885;28;20186;-69
2023/12/21 05:23:27;;;;;;;0.50;0.50;;;5.80;99.90;;;;;;5034892;28;20429;-69
2023/12/21 05:25:52;;;;;;;0.53;0.50;;;5.80;99.90;;;;;;5034690;28;20289;-69
2023/12/21 05:28:18;;;;;;;0.60;0.53;;;5.90;99.90;;;;;;5034524;28;20638;-68
2023/12/21 05:30:43;;;;;;;0.50;0.40;;;5.90;99.90;;;;;;5034906;28;20713;-69
2023/12/21 05:33:08;;;;;;;0.60;0.60;;;5.90;99.90;;;;;;5034622;28;20257;-69
2023/12/21 05:35:34;;;;;;;0.80;0.50;;;5.90;99.90;;;;;;5034570;28;20277;-69
2023/12/21 05:38:00;;;;;;;0.80;0.70;;;5.80;99.90;;;;;;5034454;28;20281;-69
2023/12/21 05:40:25;;;;;;;1.70;1.40;;;5.80;99.90;;;;;;5034735;28;20576;-69
2023/12/21 05:42:51;;;;;;;0.50;0.50;;;5.80;99.90;;;;;;5034608;28;20186;-69
2023/12/21 05:45:16;;;;;;;0.70;0.60;;;5.80;99.90;;;;;;5034572;28;20667;-69
2023/12/21 05:47:42;;;;;;;0.50;0.47;;;5.80;99.90;;;;;;5034010;28;20175;-68
2023/12/21 05:50:08;;;;;;;0.50;0.50;;;5.80;99.90;;;;;;5033358;28;20192;-69
2023/12/21 05:52:34;;;;;;;0.40;0.40;;;5.80;99.90;;;;;;5034358;28;20170;-69
2023/12/21 05:54:59;;;;;;;0.50;0.40;;;5.80;99.90;;;;;;5034313;28;20450;-69
2023/12/21 05:57:25;;;;;;;0.50;0.47;;;5.80;99.90;;;;;;5034089;28;20181;-69
2023/12/21 05:59:51;;;;;;;0.40;0.40;;;5.80;99.90;;;;;;5034238;28;20178;-69
2023/12/21 06:02:16;;;;;;;0.50;0.50;;;5.80;99.90;;;;;;5033987;28;20170;-69
2023/12/21 06:04:42;;;;;;;0.60;0.60;;;5.80;99.90;;;;;;5034019;28;20206;-69
2023/12/21 06:07:07;;;;;;;1.47;0.70;;;5.80;99.90;;;;;;5033999;28;20178;-69
2023/12/21 06:09:33;;;;;;;0.60;0.50;;;5.80;99.90;;;;;;5034014;28;20590;-69
2023/12/21 06:11:58;;;;;;;0.60;0.40;;;5.80;99.90;;;;;;5034196;28;20193;-68
2023/12/21 06:16:52;;;;;;;0.50;0.50;;;6.20;99.90;;;;;;5050599;28;20211;-69
2023/12/21 06:19:17;;;;;;;0.60;0.60;;;5.90;99.90;;;;;;5053774;28;20944;-69
2023/12/21 06:21:43;;;;;;;0.60;0.50;;;5.90;99.90;;;;;;5053868;28;20170;-69
2023/12/21 06:24:08;;;;;;;0.57;0.50;;;5.90;99.90;;;;;;5053877;28;20170;-69
2023/12/21 06:26:40;;;;;;;0.50;0.50;;;5.80;99.90;;;;;;5053353;28;20272;-69
2023/12/21 06:29:06;;;;;;;0.50;0.50;;;5.90;99.90;;;;;;5035841;28;20382;-69
2023/12/21 06:31:31;;;;;;;0.50;0.50;;;5.80;99.90;;;;;;5053483;28;20538;-69
2023/12/21 06:33:57;;;;;;;0.80;0.80;;;5.90;99.90;;;;;;5035808;28;20169;-69
2023/12/21 06:36:23;;;;;;;0.80;0.80;;;5.90;99.90;;;;;;5053180;28;20300;-69
2023/12/21 06:38:49;;;;;;;0.63;0.50;;;5.90;99.90;;;;;;5053389;28;20165;-69
2023/12/21 06:41:14;;;;;;;0.70;0.50;;;5.90;99.90;;;;;;5035551;28;20429;-69
2023/12/21 06:43:40;;;;;;;0.90;0.90;;;5.90;99.90;;;;;;5053520;28;20170;-69
2023/12/21 06:46:12;;;;;;;0.70;0.53;;;5.90;99.90;;;;;;5053061;28;20279;-69
2023/12/21 06:48:38;;;;;;;0.50;0.50;;;5.90;99.90;;;;;;5053019;28;20645;-69
2023/12/21 06:51:04;;;;;;;0.70;0.70;;;5.90;99.90;;;;;;5053340;28;20469;-69
2023/12/21 06:53:29;;;;;;;0.50;0.50;;;5.90;99.90;;;;;;5053171;28;20223;-69
2023/12/21 06:55:55;;;;;;;1.70;0.70;;;5.90;99.90;;;;;;5053247;28;20197;-69
2023/12/21 06:58:20;;;;;;;0.50;0.50;;;6.00;99.90;;;;;;5052612;28;20634;-69
2023/12/21 07:00:47;;;;;;;1.00;0.70;;;6.00;99.90;;;;;;5052964;28;20204;-69
2023/12/21 07:03:12;;;;;;;1.40;0.77;;;6.00;99.90;;;;;;5053001;28;20174;-69
2023/12/21 07:05:38;;;;;;;0.60;0.60;;;6.10;99.90;;;;;;5052690;28;20474;-69
2023/12/21 07:08:04;;;;;;;0.80;0.80;;;6.10;99.90;;;;;;5052493;28;20170;-68
2023/12/21 07:10:29;;;;;;;0.70;0.70;;;6.20;99.90;;;;;;5052790;28;20168;-69
2023/12/21 07:12:55;;;;;;;0.67;0.67;;;6.20;99.90;;;;;;5052749;28;20713;-69
2023/12/21 07:15:20;;;;;;;0.50;0.50;;;6.20;99.90;;;;;;5052656;28;20694;-69
2023/12/21 07:17:46;;;;;;;0.73;0.73;;;6.30;99.90;;;;;;5052418;28;20543;-69
2023/12/21 07:20:12;;;;;;;2.00;0.63;;;6.30;99.90;;;;;;5052661;28;20243;-69
2023/12/21 07:22:37;;;;;;;0.50;0.50;;;6.30;99.90;;;;;;5052581;28;20178;-69
2023/12/21 07:25:03;;;;;;;0.50;0.50;;;6.30;99.90;;;;;;5065864;28;20512;-69
2023/12/21 07:27:29;;;;;;;0.70;0.70;;;6.40;99.90;;;;;;5072153;28;20191;-69
2023/12/21 07:29:54;;;;;;;0.50;0.50;;;6.40;99.90;;;;;;5072339;28;20172;-69
2023/12/21 07:32:20;;;;;;;0.57;0.57;;;6.40;99.90;;;;;;5061226;28;20173;-69
2023/12/21 07:34:45;;;;;;;0.80;0.70;;;6.40;99.90;;;;;;5052225;28;20208;-69
2023/12/21 07:37:12;;;;;;;0.80;0.60;;;6.40;99.90;;;;;;5051939;28;20704;-69
2023/12/21 07:39:38;;;;;;;0.90;0.53;;;6.40;99.90;;;;;;5051855;28;20170;-69
2023/12/21 07:42:04;;;;;;;0.70;0.60;;;6.50;99.90;;;;;;5052059;28;20925;-69
2023/12/21 07:44:29;;;;;;;0.70;0.50;;;6.50;99.90;;;;;;5051612;28;20716;-69
2023/12/21 07:46:55;;;;;;;1.53;0.80;;;6.50;99.90;;;;;;5051912;28;20196;-68
2023/12/21 07:49:20;;;;;;;2.60;1.50;;;6.50;99.90;;;;;;5052150;28;20660;-68
2023/12/21 07:51:46;;;;;;;0.90;0.77;;;6.70;99.90;;;;;;5046335;28;20192;-70
2023/12/21 07:54:12;;;;;;;1.40;0.60;;;6.80;99.90;;;;;;5051826;28;20234;-69
2023/12/21 07:56:37;;;;;;;0.90;0.57;;;6.90;99.90;;;;;;5049581;28;20871;-69
2023/12/21 07:59:06;;;;;;;1.03;0.93;;;6.80;99.90;;;;;;5051811;28;20170;-70
2023/12/21 08:01:32;;;;;;;0.60;0.60;;;6.70;99.90;;;;;;5053157;28;20162;-69
2023/12/21 08:03:58;;;;;;;0.80;0.50;;;6.70;99.90;;;;;;5052201;28;20446;-68
2023/12/21 08:06:23;;;;;;;1.43;0.60;;;6.70;99.90;;;;;;5051577;28;20197;-69
2023/12/21 08:08:52;;;;;;;0.50;0.50;;;6.60;99.90;;;;;;5051773;28;20424;-69
2023/12/21 08:11:19;;;;;;;0.63;0.63;;;6.70;99.90;;;;;;5051553;28;20165;-66
2023/12/21 08:13:44;;;;;;;0.70;0.50;;;6.70;99.90;;;;;;5055665;28;20924;-66
2023/12/21 08:16:10;;;;;;;0.60;0.60;;;6.70;99.90;;;;;;5058085;28;20533;-67
2023/12/21 08:18:35;;;;;;;3.73;1.27;;;6.70;99.90;;;;;;5058118;28;20251;-66
2023/12/21 08:21:01;;;;;;;0.70;0.70;;;6.70;99.90;;;;;;5058296;28;20518;-66
2023/12/21 08:23:26;;;;;;;0.50;0.50;;;6.80;99.90;;;;;;5058169;28;20589;-70
2023/12/21 08:25:52;;;;;;;0.50;0.50;;;6.80;99.90;;;;;;5040067;28;20216;-69
2023/12/21 08:28:17;;;;;;;1.50;0.40;;;6.80;99.90;;;;;;5057453;28;20223;-65
2023/12/21 08:30:43;;;;;;;0.67;0.67;;;6.80;99.90;;;;;;5058257;28;20174;-66
2023/12/21 08:33:09;;;;;;;0.50;0.50;;;6.80;99.90;;;;;;5058292;28;20586;-66
2023/12/21 08:35:34;;;;;;;0.60;0.60;;;6.80;99.90;;;;;;5058194;28;20427;-66
2023/12/21 08:38:00;;;;;;;0.60;0.60;;;6.80;99.90;;;;;;5057886;28;20173;-67
2023/12/21 08:40:26;;;;;;;0.63;0.63;;;6.80;99.90;;;;;;5074058;28;20181;-66
2023/12/21 08:42:51;;;;;;;0.67;0.50;;;6.80;99.90;;;;;;5078043;28;20173;-66
2023/12/21 08:45:17;;;;;;;0.83;0.70;;;6.80;99.90;;;;;;5077704;28;20677;-66
2023/12/21 08:47:43;;;;;;;0.50;0.50;;;6.80;99.90;;;;;;5067066;28;20178;-66
2023/12/21 08:50:10;;;;;;;0.70;0.50;;;6.80;99.90;;;;;;5058099;28;20177;-65
2023/12/21 08:52:39;;;;;;;1.33;0.93;;;6.80;99.90;;;;;;5058064;28;20182;-65
2023/12/21 08:55:05;;;;;;;0.70;0.70;;;6.80;99.90;;;;;;5057689;28;20436;-66
2023/12/21 08:57:32;;;;;;;0.53;0.50;;;6.80;99.90;;;;;;5057613;28;20419;-65
2023/12/21 08:59:58;;;;;;;1.83;0.60;;;6.80;99.90;;;;;;5058082;28;20420;-66
2023/12/21 09:02:25;;;;;;;1.00;0.60;;;6.80;99.90;;;;;;5058120;28;20803;-66
2023/12/21 09:04:50;;;;;;;0.60;0.60;;;6.90;99.90;;;;;;5057967;28;20466;-67
2023/12/21 09:07:16;;;;;;;4.13;0.73;;;6.90;99.90;;;;;;5056822;28;20494;-66
2023/12/21 09:09:42;;;;;;;0.60;0.60;;;6.90;99.90;;;;;;5057322;28;20170;-66
2023/12/21 09:12:07;;;;;;;0.60;0.57;;;7.00;99.90;;;;;;5057790;28;20550;-66
2023/12/21 09:14:33;;;;;;;1.80;1.07;;;7.00;99.90;;;;;;5057137;28;20173;-69
2023/12/21 09:16:59;;;;;;;0.60;0.50;;;7.00;99.90;;;;;;5057219;28;20173;-69
2023/12/21 09:19:24;;;;;;;0.87;0.60;;;7.00;99.90;;;;;;5056023;28;20261;-69
2023/12/21 09:21:50;;;;;;;0.60;0.50;;;7.00;99.90;;;;;;5057255;28;20941;-69
2023/12/21 09:24:16;;;;;;;0.93;0.67;;;7.00;99.90;;;;;;5056537;28;20670;-69
2023/12/21 09:26:41;;;;;;;1.00;0.67;;;7.10;99.90;;;;;;5053692;28;20491;-69
2023/12/21 09:29:06;;;;;;;1.47;0.43;;;7.10;99.90;;;;;;5054117;28;20212;-69
2023/12/21 09:31:32;;;;;;;0.73;0.57;;;7.10;99.90;;;;;;5054361;28;20572;-69
2023/12/21 09:33:59;;;;;;;1.27;0.70;;;7.10;99.90;;;;;;5054260;28;20223;-69
2023/12/21 09:36:25;;;;;;;0.77;0.53;;;7.10;99.90;;;;;;5053665;28;20227;-69
2023/12/21 09:38:51;;;;;;;1.43;0.60;;;7.20;99.90;;;;;;5058425;28;20987;-70
2023/12/21 09:41:17;;;;;;;0.50;0.50;;;7.20;99.90;;;;;;5073809;28;20202;-70
2023/12/21 09:43:45;;;;;;;0.67;0.60;;;7.20;99.90;;;;;;5073428;28;20506;-69
2023/12/21 09:46:13;;;;;;;0.50;0.50;;;7.30;99.90;;;;;;5073956;28;20211;-69
2023/12/21 09:48:40;;;;;;;0.50;0.50;;;7.30;99.90;;;;;;5055622;28;20495;-69
2023/12/21 09:51:07;;;;;;;0.83;0.60;;;7.30;99.90;;;;;;5054030;28;20412;-69
2023/12/21 09:53:35;;;;;;;0.50;0.50;;;7.30;99.90;;;;;;5053948;28;20506;-69
2023/12/21 09:56:01;;;;;;;0.53;0.50;;;7.30;99.90;;;;;;5056991;28;20463;-69
2023/12/21 09:58:30;;;;;;;0.57;0.57;;;7.40;99.90;;;;;;5054007;28;20420;-66
2023/12/21 10:00:56;;;;;;;0.53;0.53;;;7.40;99.90;;;;;;5053618;28;20436;-67
2023/12/21 10:03:21;;;;;;;0.50;0.50;;;7.40;99.90;;;;;;5053838;28;20454;-67
2023/12/21 10:05:48;;;;;;;0.40;0.40;;;7.40;99.90;;;;;;5053570;28;20209;-66
2023/12/21 10:08:15;;;;;;;0.40;0.40;;;7.40;99.90;;;;;;5052733;28;20211;-67
2023/12/21 10:10:40;;;;;;;3.90;0.60;;;7.50;99.90;;;;;;5053261;28;20787;-66
2023/12/21 10:13:06;;;;;;;0.73;0.50;;;7.50;99.90;;;;;;5053564;28;20423;-66
2023/12/21 10:15:35;;;;;;;3.03;2.33;;;7.50;99.90;;;;;;5053574;28;20205;-67
2023/12/21 10:18:00;;;;;;;0.70;0.70;;;7.50;99.90;;;;;;5035549;28;20647;-67
2023/12/21 10:20:26;;;;;;;0.60;0.50;;;7.40;99.90;;;;;;5053548;28;20420;-67
2023/12/21 10:22:52;;;;;;;0.60;0.60;;;7.40;99.90;;;;;;5053494;28;20169;-67
2023/12/21 10:25:18;;;;;;;0.87;0.60;;;7.40;99.90;;;;;;5053376;28;20241;-67
2023/12/21 10:27:56;;;;;;;0.40;0.40;;;7.40;99.90;;;;;;5053297;28;20174;-67
2023/12/21 10:30:23;;;;;;;0.47;0.47;;;7.40;99.90;;;;;;5053408;28;20462;-68
2023/12/21 10:32:53;;;;;;;0.60;0.53;;;7.40;99.90;;;;;;5053173;28;20914;-66
2023/12/21 10:35:19;;;;;;;0.60;0.60;;;7.50;99.90;;;;;;5053320;28;21058;-66
2023/12/21 10:37:47;;;;;;;1.57;0.50;;;7.50;99.90;;;;;;5052540;28;20424;-66
2023/12/21 10:40:15;;;;;;;0.50;0.50;;;7.50;99.90;;;;;;5053054;28;20554;-66
2023/12/21 10:42:54;;;;;;;0.50;0.50;;;7.50;99.90;;;;;;5050165;28;20427;-68
2023/12/21 10:45:33;;;;;;;;;;;;;;;;;;;;;
2023/12/21 10:48:11;;;;;;;0.70;0.70;;;7.60;99.90;;;;;;5048240;28;20420;-68
2023/12/21 10:50:38;;;;;;;0.50;0.50;;;7.60;99.90;;;;;;5035434;28;20423;-67
2023/12/21 10:53:04;;;;;;;0.87;0.50;;;7.70;99.90;;;;;;5053319;28;20901;-67
2023/12/21 10:55:31;;;;;;;0.77;0.77;;;7.70;99.90;;;;;;5052934;28;20455;-68
2023/12/21 10:57:57;;;;;;;1.10;0.60;;;7.70;99.90;;;;;;5052582;28;20609;-68
2023/12/21 11:00:24;;;;;;;0.60;0.53;;;7.70;99.90;;;;;;5052952;28;20781;-67
2023/12/21 11:02:49;;;;;;;0.80;0.70;;;7.70;99.90;;;;;;5052790;28;20420;-68
2023/12/21 11:05:26;;;;;;;0.60;0.60;;;7.70;99.90;;;;;;5052408;28;20821;-68
2023/12/21 11:07:53;;;;;;;1.03;0.50;;;7.80;99.90;;;;;;5052527;28;20287;-68
2023/12/21 11:10:22;;;;;;;0.60;0.50;;;7.80;99.90;;;;;;5052072;28;20424;-68
2023/12/21 11:12:48;;;;;;;0.93;0.50;;;7.80;99.90;;;;;;5052880;28;20416;-68
2023/12/21 11:15:20;;;;;;;0.70;0.40;;;7.80;99.90;;;;;;5052134;28;20460;-68
2023/12/21 11:18:10;;;;;;;0.60;0.60;;;7.80;99.90;;;;;;5052458;28;20455;-68
2023/12/21 11:20:55;;;;;;;0.50;0.50;;;7.80;99.90;;;;;;5042732;28;20436;-68
2023/12/21 11:23:21;;;;;;;0.90;0.73;;;7.80;99.90;;;;;;5052576;28;20785;-68
2023/12/21 11:25:57;;;;;;;0.60;0.60;;;7.80;99.90;;;;;;5052374;28;20543;-68
2023/12/21 11:28:32;;;;;;;0.50;0.50;;;7.80;99.90;;;;;;5052232;28;20162;-67
2023/12/21 11:30:57;;;;;;;0.50;0.50;;;7.80;99.90;;;;;;5052385;28;21016;-68
2023/12/21 11:33:30;;;;;;;6.93;0.60;;;7.90;99.90;;;;;;5052439;28;20447;-68
2023/12/21 11:35:59;;;;;;;0.70;0.70;;;8.00;99.90;;;;;;5052194;28;20193;-71
2023/12/21 11:38:51;;;;;;;1.37;0.60;;;8.10;99.90;;;;;;5051855;28;20423;-68
2023/12/21 11:41:17;;;;;;;0.90;0.50;;;8.10;99.90;;;;;;5051793;28;20465;-68
2023/12/21 11:44:02;;;;;;;3.80;1.00;;;8.10;99.90;;;;;;5051702;28;20503;-69
2023/12/21 11:46:28;;;;;;;1.13;0.70;;;8.20;99.90;;;;;;5051670;28;20607;-69
2023/12/21 11:48:53;;;;;;;3.43;3.13;;;8.30;99.90;;;;;;5051401;28;20461;-68
2023/12/21 11:51:19;;;;;;;2.50;2.30;;;8.40;99.90;;;;;;5052135;28;20700;-68
2023/12/21 11:53:44;;;;;;;1.00;0.67;;;8.40;99.90;;;;;;5052018;28;20643;-71
2023/12/21 11:56:16;;;;;;;0.57;0.57;;;8.40;99.90;;;;;;5051757;28;20555;-69
2023/12/21 11:58:43;;;;;;;0.87;0.60;;;8.30;99.90;;;;;;5051781;28;20173;-69
2023/12/21 12:01:21;;;;;;;0.60;0.60;;;8.30;99.90;;;;;;5034220;28;20431;-69
2023/12/21 12:03:47;;;;;;;0.80;0.60;;;8.30;99.90;;;;;;5051905;28;20428;-68
2023/12/21 12:06:13;;;;;;;1.03;0.70;;;8.40;99.90;;;;;;5050057;28;20460;-67
2023/12/21 12:08:40;;;;;;;1.37;1.03;;;8.30;99.90;;;;;;5051195;28;20550;-68
2023/12/21 12:11:06;;;;;;;0.70;0.60;;;8.30;99.90;;;;;;5049531;28;20469;-68
2023/12/21 12:13:32;;;;;;;1.23;0.70;;;8.40;99.90;;;;;;5051886;28;20940;-68
2023/12/21 12:15:57;;;;;;;1.47;0.60;;;8.60;99.90;;;;;;5052157;28;20216;-68
2023/12/21 12:18:23;;;;;;;1.37;0.87;;;8.80;99.90;;;;;;5051479;28;20204;-67
2023/12/21 12:20:50;;;;;;;0.70;0.53;;;8.80;99.90;;;;;;5051698;28;20711;-68
2023/12/21 12:23:16;;;;;;;1.70;0.53;;;8.80;99.90;;;;;;5051533;28;20202;-67
2023/12/21 12:25:42;;;;;;;1.03;0.73;;;8.80;99.90;;;;;;5051446;28;20498;-67
2023/12/21 12:28:08;;;;;;;1.77;0.60;;;8.90;99.90;;;;;;5051405;28;20169;-68
2023/12/21 12:30:35;;;;;;;0.83;0.60;;;8.80;99.90;;;;;;5051502;28;20924;-67
2023/12/21 12:33:03;;;;;;;1.57;0.70;;;8.70;99.90;;;;;;5051679;28;20631;-67
2023/12/21 12:35:31;;;;;;;0.53;0.50;;;8.60;99.90;;;;;;5051286;28;20440;-67
2023/12/21 12:37:57;;;;;;;0.60;0.60;;;8.60;99.90;;;;;;5051063;28;20451;-67
2023/12/21 12:40:23;;;;;;;2.20;0.60;;;8.50;99.90;;;;;;5051619;28;20485;-67
2023/12/21 12:42:49;;;;;;;0.93;0.90;;;8.50;99.90;;;;;;5051516;28;20162;-67
2023/12/21 12:45:16;;;;;;;0.80;0.50;;;8.40;99.90;;;;;;5051317;28;20590;-67
2023/12/21 12:47:42;;;;;;;1.30;0.60;;;8.20;99.90;;;;;;5051185;28;20423;-69
2023/12/21 12:50:11;;;;;;;0.60;0.50;;;8.20;99.90;;;;;;5050944;28;20420;-68
2023/12/21 12:52:45;;;;;;;9.83;1.03;;;8.30;99.90;;;;;;5051251;28;20583;-68
2023/12/21 12:55:11;;;;;;;0.90;0.60;;;8.40;99.90;;;;;;5051400;28;20996;-71
2023/12/21 12:57:37;;;;;;;1.43;0.70;;;8.50;99.90;;;;;;5050950;28;20969;-68